Sunday, April 21, 2019, 10:17 PM EDT
Back to Local

KAKR, Akron Fulton International

Location: Akron, OH, United States Lat: 41.033
Local Time: 10:17 PM EDT ( 2:17 GMT) Lon: -81.467
Time Zone: US/Eastern Elev: 1069 ft

Show me the last for .
Show Coded

Time T Td Feel RH Dir Speed Gust Alt SLP Vis Weather Sky Remarks
2019-04-21 21:54 51 43 - 73 200° 5 - 30.17 30.17 10 FEW110 None
2019-04-21 20:54 53 42 - 66 - Calm - 30.16 30.17 10 CLR None
2019-04-21 19:54 54 42 - 64 130° 3 - 30.14 30.15 10 FEW120 6-hr Min Temp (8pm): 50.0°F
6-hr Max Temp (8pm): 55.9°F
2019-04-21 18:54 56 42 - 59 - Calm - 30.13 30.14 10 SCT035 None
2019-04-21 17:54 54 42 - 64 - Calm - 30.12 30.12 10 FEW028 FEW034 OVC110 None
2019-04-21 17:27 55 43 - 63 - Calm - 30.11 - 10 SCT028 None
2019-04-21 16:54 54 43 - 66 - Calm - 30.11 30.11 10 BKN022 OVC027 None
2019-04-21 15:54 52 43 - 71 260° 7 - 30.11 30.11 10 OVC020 None
2019-04-21 14:54 51 43 - 73 280° 7 - 30.10 30.11 10 OVC018 None
2019-04-21 14:27 51 42 - 71 240° 8 - 30.09 - 10 BKN017 OVC023 None
2019-04-21 13:54 50 43 48 76 Variable 6 - 30.09 30.10 10 BKN013 OVC022 6-hr Precip Total (2pm): 0.00"
6-hr Min Temp (2pm): 45.0°F
6-hr Max Temp (2pm): 50.0°F
2019-04-21 13:44 49 44 45 83 260° 8 - 30.09 - 10 FEW009 BKN015 OVC022 None
2019-04-21 12:54 48 42 44 79 240° 8 - 30.08 30.09 9 OVC017 None
2019-04-21 12:37 48 42 45 79 290° 7 - 30.08 - 10 OVC017 None
2019-04-21 12:18 48 42 47 79 260° 3 - 30.07 - 10 FEW009 OVC014 None
2019-04-21 12:11 48 42 - 79 - Calm - 30.07 - 10 SCT010 OVC017 None
2019-04-21 11:54 48 42 45 79 270° 6 - 30.07 30.07 10 BKN008 OVC015 1-hr Precip Total: Trace
2019-04-21 11:02 47 42 43 83 270° 8 - 30.05 - 10 -RA OVC009 1-hr Precip Total: Trace
2019-04-21 10:54 47 42 45 83 300° 5 - 30.04 30.05 10 OVC011 6-hr Precip Total (11am): 0.00"
2019-04-21 10:23 46 42 42 85 270° 7 - 30.03 - 10 BKN010 OVC014 None
2019-04-21 09:54 47 43 43 86 270° 9 - 30.02 30.03 9 BKN009 OVC015 None
2019-04-21 09:49 46 43 44 87 250° 6 - 30.02 - 10 BKN009 OVC016 None
2019-04-21 09:38 47 43 44 86 240° 6 - 30.02 - 10 OVC011 None
2019-04-21 08:54 45 42 41 89 240° 8 - 30.01 30.01 4 BR BKN006 OVC012 1-hr Precip Total: Trace
2019-04-21 08:47 45 42 40 89 260° 9 - 30.00 - 4 BR BKN006 OVC012 1-hr Precip Total: Trace
2019-04-21 08:40 45 42 40 89 270° 9 - 30.00 - 2 BR BKN006 OVC010 1-hr Precip Total: Trace
2019-04-21 08:30 45 42 41 89 230° 8 - 30.00 - 3 -RA BR OVC006 1-hr Precip Total: Trace
2019-04-21 08:16 45 42 42 89 230° 6 - 29.99 - 2 BR BKN006 OVC012 None
2019-04-21 07:54 45 42 41 89 240° 7 - 29.99 29.99 6 BR SCT009 OVC012 6-hr Min Temp (8am): 44.1°F
6-hr Max Temp (8am): 46.0°F
2019-04-21 07:41 45 42 42 89 220° 6 - 29.98 - 5 BR SCT008 OVC014 None
2019-04-21 07:17 45 42 43 89 250° 5 - 29.97 - 10 BKN008 OVC014 None
2019-04-21 06:54 45 42 43 89 230° 5 - 29.95 29.95 7 OVC010 None
2019-04-21 06:43 45 41 44 85 230° 3 - 29.94 - 7 BKN010 OVC018 None
2019-04-21 06:35 45 41 44 85 230° 3 - 29.94 - 7 BKN008 OVC016 None
2019-04-21 06:19 45 41 43 85 260° 5 - 29.92 - 10 FEW010 OVC015 None
2019-04-21 05:54 45 41 41 85 270° 7 - 29.91 29.91 10 OVC013 None
2019-04-21 04:54 45 40 42 82 270° 6 - 29.88 29.88 10 OVC013 None
2019-04-21 04:02 45 39 42 79 290° 6 - 29.85 - 10 SCT007 OVC012 None
2019-04-21 03:54 45 40 44 82 310° 3 - 29.85 29.85 10 BKN007 OVC012 None
2019-04-21 02:54 44 39 40 82 290° 7 - 29.84 29.84 10 OVC008 None
2019-04-21 01:54 44 40 42 85 320° 5 - 29.85 29.85 10 OVC007 6-hr Min Temp (2am): 44.1°F
6-hr Max Temp (2am): 52.0°F
2019-04-21 00:54 44 40 40 85 300° 7 - 29.83 29.83 10 OVC008 24-hr Min Temp (1am): 43.0°F
24-hr Max Temp (1am): 60.1°F
2019-04-20 23:54 45 40 40 82 280° 9 - 29.81 29.81 10 OVC009 None
2019-04-20 23:40 46 40 41 79 300° 12 - 29.80 - 10 OVC009 Pressure rising rapidly
2019-04-20 22:54 46 41 42 82 270° 7 - 29.78 29.78 10 BKN010 None
2019-04-20 22:44 46 41 42 82 280° 7 - 29.78 - 10 SCT009 BKN100 None

Support USWX by starting your Amazon purchase here.